sensor_id;sensor_type;location;lat;lon;timestamp;temperature;humidity
33815;DHT22;20121;51.910;8.406;2022-12-18T00:01:41;-9.20;99.90
33815;DHT22;20121;51.910;8.406;2022-12-18T00:04:11;-9.20;99.90
33815;DHT22;20121;51.910;8.406;2022-12-18T00:06:40;-9.20;99.90
33815;DHT22;20121;51.910;8.406;2022-12-18T00:09:05;-9.20;99.90
33815;DHT22;20121;51.910;8.406;2022-12-18T00:11:31;-9.50;99.90
33815;DHT22;20121;51.910;8.406;2022-12-18T00:13:58;-9.10;99.90
33815;DHT22;20121;51.910;8.406;2022-12-18T00:16:25;-9.10;99.90
33815;DHT22;20121;51.910;8.406;2022-12-18T00:18:53;-9.10;99.90
33815;DHT22;20121;51.910;8.406;2022-12-18T00:21:20;-9.20;99.90
33815;DHT22;20121;51.910;8.406;2022-12-18T00:23:47;-9.20;99.90
33815;DHT22;20121;51.910;8.406;2022-12-18T00:26:21;-9.20;99.90
33815;DHT22;20121;51.910;8.406;2022-12-18T00:28:48;-9.20;99.90
33815;DHT22;20121;51.910;8.406;2022-12-18T00:31:16;-9.20;99.90
33815;DHT22;20121;51.910;8.406;2022-12-18T00:33:42;-9.20;99.90
33815;DHT22;20121;51.910;8.406;2022-12-18T00:36:11;-9.20;99.90
33815;DHT22;20121;51.910;8.406;2022-12-18T00:38:37;-9.20;99.90
33815;DHT22;20121;51.910;8.406;2022-12-18T00:41:03;-9.20;99.90
33815;DHT22;20121;51.910;8.406;2022-12-18T00:43:29;-9.10;99.90
33815;DHT22;20121;51.910;8.406;2022-12-18T00:45:55;-9.10;99.90
33815;DHT22;20121;51.910;8.406;2022-12-18T00:48:20;-9.10;99.90
33815;DHT22;20121;51.910;8.406;2022-12-18T00:50:48;-9.10;99.90
33815;DHT22;20121;51.910;8.406;2022-12-18T00:53:14;-9.10;99.90
33815;DHT22;20121;51.910;8.406;2022-12-18T00:55:40;-9.10;99.90
33815;DHT22;20121;51.910;8.406;2022-12-18T00:58:07;-9.10;99.90
33815;DHT22;20121;51.910;8.406;2022-12-18T01:00:33;-9.10;99.90
33815;DHT22;20121;51.910;8.406;2022-12-18T01:02:58;-9.10;99.90
33815;DHT22;20121;51.910;8.406;2022-12-18T01:05:24;-9.00;99.90
33815;DHT22;20121;51.910;8.406;2022-12-18T01:07:50;-9.00;99.90
33815;DHT22;20121;51.910;8.406;2022-12-18T01:10:15;-8.90;99.90
33815;DHT22;20121;51.910;8.406;2022-12-18T01:12:41;-8.90;99.90
33815;DHT22;20121;51.910;8.406;2022-12-18T01:15:07;-8.80;99.90
33815;DHT22;20121;51.910;8.406;2022-12-18T01:17:34;-8.80;99.90
33815;DHT22;20121;51.910;8.406;2022-12-18T01:20:00;-8.80;99.90
33815;DHT22;20121;51.910;8.406;2022-12-18T01:22:26;-8.70;99.90
33815;DHT22;20121;51.910;8.406;2022-12-18T01:24:51;-8.70;99.90
33815;DHT22;20121;51.910;8.406;2022-12-18T01:27:17;-8.70;99.90
33815;DHT22;20121;51.910;8.406;2022-12-18T01:29:42;-8.70;99.90
33815;DHT22;20121;51.910;8.406;2022-12-18T01:32:08;-8.70;99.90
33815;DHT22;20121;51.910;8.406;2022-12-18T01:34:36;-8.60;99.90
33815;DHT22;20121;51.910;8.406;2022-12-18T01:37:03;-8.60;99.90
33815;DHT22;20121;51.910;8.406;2022-12-18T01:39:29;-8.60;99.90
33815;DHT22;20121;51.910;8.406;2022-12-18T01:41:55;-8.60;99.90
33815;DHT22;20121;51.910;8.406;2022-12-18T01:47:18;-8.50;99.90
33815;DHT22;20121;51.910;8.406;2022-12-18T01:49:46;-8.50;99.90
33815;DHT22;20121;51.910;8.406;2022-12-18T01:52:11;-8.50;99.90
33815;DHT22;20121;51.910;8.406;2022-12-18T01:54:37;-8.50;99.90
33815;DHT22;20121;51.910;8.406;2022-12-18T01:57:03;-8.50;99.90
33815;DHT22;20121;51.910;8.406;2022-12-18T01:59:31;-8.50;99.90
33815;DHT22;20121;51.910;8.406;2022-12-18T02:01:57;-8.60;99.90
33815;DHT22;20121;51.910;8.406;2022-12-18T02:04:25;-8.60;99.90
33815;DHT22;20121;51.910;8.406;2022-12-18T02:07:17;-8.70;99.90
33815;DHT22;20121;51.910;8.406;2022-12-18T02:12:22;-8.70;99.90
33815;DHT22;20121;51.910;8.406;2022-12-18T02:15:09;-8.80;99.90
33815;DHT22;20121;51.910;8.406;2022-12-18T02:17:48;-8.80;99.90
33815;DHT22;20121;51.910;8.406;2022-12-18T02:20:28;-8.80;99.90
33815;DHT22;20121;51.910;8.406;2022-12-18T02:26:26;-8.90;99.90
33815;DHT22;20121;51.910;8.406;2022-12-18T02:29:00;-8.90;99.90
33815;DHT22;20121;51.910;8.406;2022-12-18T02:31:30;-8.90;99.90
33815;DHT22;20121;51.910;8.406;2022-12-18T02:34:01;-8.90;99.90
33815;DHT22;20121;51.910;8.406;2022-12-18T02:36:28;-8.90;99.90
33815;DHT22;20121;51.910;8.406;2022-12-18T02:38:55;-8.90;99.90
33815;DHT22;20121;51.910;8.406;2022-12-18T02:41:23;-9.00;99.90
33815;DHT22;20121;51.910;8.406;2022-12-18T02:43:55;-8.90;99.90
33815;DHT22;20121;51.910;8.406;2022-12-18T02:46:45;-8.90;99.90
33815;DHT22;20121;51.910;8.406;2022-12-18T02:52:05;-9.00;99.90
33815;DHT22;20121;51.910;8.406;2022-12-18T02:55:00;-9.00;99.90
33815;DHT22;20121;51.910;8.406;2022-12-18T02:57:50;-9.00;99.90
33815;DHT22;20121;51.910;8.406;2022-12-18T03:03:19;-8.90;99.90
33815;DHT22;20121;51.910;8.406;2022-12-18T03:08:35;-9.00;99.90
33815;DHT22;20121;51.910;8.406;2022-12-18T03:11:06;-9.00;99.90
33815;DHT22;20121;51.910;8.406;2022-12-18T03:13:33;-9.00;99.90
33815;DHT22;20121;51.910;8.406;2022-12-18T03:16:01;-9.00;99.90
33815;DHT22;20121;51.910;8.406;2022-12-18T03:18:34;-9.00;99.90
33815;DHT22;20121;51.910;8.406;2022-12-18T03:21:02;-9.10;99.90
33815;DHT22;20121;51.910;8.406;2022-12-18T03:23:34;-9.10;99.90
33815;DHT22;20121;51.910;8.406;2022-12-18T03:26:04;-9.10;99.90
33815;DHT22;20121;51.910;8.406;2022-12-18T03:28:32;-9.10;99.90
33815;DHT22;20121;51.910;8.406;2022-12-18T03:31:00;-9.10;99.90
33815;DHT22;20121;51.910;8.406;2022-12-18T03:33:34;-9.10;99.90
33815;DHT22;20121;51.910;8.406;2022-12-18T03:36:03;-9.10;99.90
33815;DHT22;20121;51.910;8.406;2022-12-18T03:38:28;-9.00;99.90
33815;DHT22;20121;51.910;8.406;2022-12-18T03:46:22;-9.10;99.90
33815;DHT22;20121;51.910;8.406;2022-12-18T03:49:01;-9.10;99.90
33815;DHT22;20121;51.910;8.406;2022-12-18T03:51:48;-9.10;99.90
33815;DHT22;20121;51.910;8.406;2022-12-18T03:54:16;-9.10;99.90
33815;DHT22;20121;51.910;8.406;2022-12-18T03:56:50;-9.10;99.90
33815;DHT22;20121;51.910;8.406;2022-12-18T03:59:19;-9.10;99.90
33815;DHT22;20121;51.910;8.406;2022-12-18T04:01:47;-9.10;99.90
33815;DHT22;20121;51.910;8.406;2022-12-18T04:04:15;-9.10;99.90
33815;DHT22;20121;51.910;8.406;2022-12-18T04:06:42;-9.20;99.90
33815;DHT22;20121;51.910;8.406;2022-12-18T04:09:09;-9.20;99.90
33815;DHT22;20121;51.910;8.406;2022-12-18T04:11:35;-9.20;99.90
33815;DHT22;20121;51.910;8.406;2022-12-18T04:14:00;-9.20;99.90
33815;DHT22;20121;51.910;8.406;2022-12-18T04:16:26;-9.10;99.90
33815;DHT22;20121;51.910;8.406;2022-12-18T04:18:53;-9.10;99.90
33815;DHT22;20121;51.910;8.406;2022-12-18T04:21:19;-9.10;99.90
33815;DHT22;20121;51.910;8.406;2022-12-18T04:23:45;-9.10;99.90
33815;DHT22;20121;51.910;8.406;2022-12-18T04:26:11;-9.10;99.90
33815;DHT22;20121;51.910;8.406;2022-12-18T04:28:37;-9.10;99.90
33815;DHT22;20121;51.910;8.406;2022-12-18T04:31:02;-9.10;99.90
33815;DHT22;20121;51.910;8.406;2022-12-18T04:33:28;-9.10;99.90
33815;DHT22;20121;51.910;8.406;2022-12-18T04:35:54;-9.10;99.90
33815;DHT22;20121;51.910;8.406;2022-12-18T04:38:19;-9.10;99.90
33815;DHT22;20121;51.910;8.406;2022-12-18T04:40:45;-9.10;99.90
33815;DHT22;20121;51.910;8.406;2022-12-18T04:43:10;-9.00;99.90
33815;DHT22;20121;51.910;8.406;2022-12-18T04:45:36;-9.00;99.90
33815;DHT22;20121;51.910;8.406;2022-12-18T04:48:03;-9.00;99.90
33815;DHT22;20121;51.910;8.406;2022-12-18T04:50:29;-9.00;99.90
33815;DHT22;20121;51.910;8.406;2022-12-18T04:52:55;-9.00;99.90
33815;DHT22;20121;51.910;8.406;2022-12-18T04:55:20;-8.90;99.90
33815;DHT22;20121;51.910;8.406;2022-12-18T04:57:46;-9.00;99.90
33815;DHT22;20121;51.910;8.406;2022-12-18T05:00:12;-9.00;99.90
33815;DHT22;20121;51.910;8.406;2022-12-18T05:02:38;-8.90;99.90
33815;DHT22;20121;51.910;8.406;2022-12-18T05:05:04;-8.90;99.90
33815;DHT22;20121;51.910;8.406;2022-12-18T05:07:30;-8.90;99.90
33815;DHT22;20121;51.910;8.406;2022-12-18T05:09:56;-8.80;99.90
33815;DHT22;20121;51.910;8.406;2022-12-18T05:12:21;-8.70;99.90
33815;DHT22;20121;51.910;8.406;2022-12-18T05:14:47;-8.60;99.90
33815;DHT22;20121;51.910;8.406;2022-12-18T05:17:12;-9.00;99.90
33815;DHT22;20121;51.910;8.406;2022-12-18T05:19:38;-8.50;99.90
33815;DHT22;20121;51.910;8.406;2022-12-18T05:22:04;-8.40;99.90
33815;DHT22;20121;51.910;8.406;2022-12-18T05:24:29;-8.30;99.90
33815;DHT22;20121;51.910;8.406;2022-12-18T05:26:55;-8.30;99.90
33815;DHT22;20121;51.910;8.406;2022-12-18T05:29:20;-8.20;99.90
33815;DHT22;20121;51.910;8.406;2022-12-18T05:31:46;-8.20;99.90
33815;DHT22;20121;51.910;8.406;2022-12-18T05:34:12;-8.10;99.90
33815;DHT22;20121;51.910;8.406;2022-12-18T05:36:37;-8.10;99.90
33815;DHT22;20121;51.910;8.406;2022-12-18T05:39:03;-8.10;99.90
33815;DHT22;20121;51.910;8.406;2022-12-18T05:41:29;-8.10;99.90
33815;DHT22;20121;51.910;8.406;2022-12-18T05:43:54;-8.10;99.90
33815;DHT22;20121;51.910;8.406;2022-12-18T05:46:20;-7.90;99.90
33815;DHT22;20121;51.910;8.406;2022-12-18T05:48:46;-8.10;99.90
33815;DHT22;20121;51.910;8.406;2022-12-18T05:51:14;-8.10;99.90
33815;DHT22;20121;51.910;8.406;2022-12-18T05:53:40;-8.10;99.90
33815;DHT22;20121;51.910;8.406;2022-12-18T05:56:09;-8.10;99.90
33815;DHT22;20121;51.910;8.406;2022-12-18T05:58:36;-8.10;99.90
33815;DHT22;20121;51.910;8.406;2022-12-18T06:01:22;-8.20;99.90
33815;DHT22;20121;51.910;8.406;2022-12-18T06:03:48;-8.20;99.90
33815;DHT22;20121;51.910;8.406;2022-12-18T06:06:27;-8.20;99.90
33815;DHT22;20121;51.910;8.406;2022-12-18T06:08:53;-8.20;99.90
33815;DHT22;20121;51.910;8.406;2022-12-18T06:11:21;-8.20;99.90
33815;DHT22;20121;51.910;8.406;2022-12-18T06:13:51;-8.10;99.90
33815;DHT22;20121;51.910;8.406;2022-12-18T06:16:17;-7.90;99.90
33815;DHT22;20121;51.910;8.406;2022-12-18T06:18:43;-7.90;99.90
33815;DHT22;20121;51.910;8.406;2022-12-18T06:21:09;-7.80;99.90
33815;DHT22;20121;51.910;8.406;2022-12-18T06:23:35;-7.70;99.90
33815;DHT22;20121;51.910;8.406;2022-12-18T06:26:10;-7.50;99.90
33815;DHT22;20121;51.910;8.406;2022-12-18T06:28:36;-7.60;99.90
33815;DHT22;20121;51.910;8.406;2022-12-18T06:31:03;-7.50;99.90
33815;DHT22;20121;51.910;8.406;2022-12-18T06:33:29;-7.50;99.90
33815;DHT22;20121;51.910;8.406;2022-12-18T06:36:00;-7.50;99.90
33815;DHT22;20121;51.910;8.406;2022-12-18T06:38:26;-7.60;99.90
33815;DHT22;20121;51.910;8.406;2022-12-18T06:40:52;-7.60;99.90
33815;DHT22;20121;51.910;8.406;2022-12-18T06:43:18;-7.60;99.90
33815;DHT22;20121;51.910;8.406;2022-12-18T06:45:43;-7.60;99.90
33815;DHT22;20121;51.910;8.406;2022-12-18T06:48:09;-7.60;99.90
33815;DHT22;20121;51.910;8.406;2022-12-18T06:50:34;-7.60;99.90
33815;DHT22;20121;51.910;8.406;2022-12-18T06:53:00;-7.50;99.90
33815;DHT22;20121;51.910;8.406;2022-12-18T06:55:26;-7.40;99.90
33815;DHT22;20121;51.910;8.406;2022-12-18T06:57:51;-7.40;99.90
33815;DHT22;20121;51.910;8.406;2022-12-18T07:00:17;-7.50;99.90
33815;DHT22;20121;51.910;8.406;2022-12-18T07:02:43;-7.40;99.90
33815;DHT22;20121;51.910;8.406;2022-12-18T07:05:09;-7.40;99.90
33815;DHT22;20121;51.910;8.406;2022-12-18T07:07:35;-7.40;99.90
33815;DHT22;20121;51.910;8.406;2022-12-18T07:10:00;-7.40;99.90
33815;DHT22;20121;51.910;8.406;2022-12-18T07:12:29;-7.40;99.90
33815;DHT22;20121;51.910;8.406;2022-12-18T07:14:55;-7.30;99.90
33815;DHT22;20121;51.910;8.406;2022-12-18T07:17:20;-7.30;99.90
33815;DHT22;20121;51.910;8.406;2022-12-18T07:19:46;-7.40;99.90
33815;DHT22;20121;51.910;8.406;2022-12-18T07:22:12;-7.30;99.90
33815;DHT22;20121;51.910;8.406;2022-12-18T07:24:37;-7.30;99.90
33815;DHT22;20121;51.910;8.406;2022-12-18T07:27:03;-7.30;99.90
33815;DHT22;20121;51.910;8.406;2022-12-18T07:29:29;-7.30;99.90
33815;DHT22;20121;51.910;8.406;2022-12-18T07:31:55;-7.30;99.90
33815;DHT22;20121;51.910;8.406;2022-12-18T07:34:20;-7.30;99.90
33815;DHT22;20121;51.910;8.406;2022-12-18T07:36:46;-7.30;99.90
33815;DHT22;20121;51.910;8.406;2022-12-18T07:39:12;-7.20;99.90
33815;DHT22;20121;51.910;8.406;2022-12-18T07:41:38;-7.10;99.90
33815;DHT22;20121;51.910;8.406;2022-12-18T07:44:04;-7.00;99.90
33815;DHT22;20121;51.910;8.406;2022-12-18T07:46:29;-6.90;99.90
33815;DHT22;20121;51.910;8.406;2022-12-18T07:48:55;-6.80;99.90
33815;DHT22;20121;51.910;8.406;2022-12-18T07:51:20;-6.80;99.90
33815;DHT22;20121;51.910;8.406;2022-12-18T07:53:46;-6.80;99.90
33815;DHT22;20121;51.910;8.406;2022-12-18T07:56:12;-6.80;99.90
33815;DHT22;20121;51.910;8.406;2022-12-18T07:58:38;-6.70;99.90
33815;DHT22;20121;51.910;8.406;2022-12-18T08:01:06;-6.70;99.90
33815;DHT22;20121;51.910;8.406;2022-12-18T08:03:32;-6.60;99.90
33815;DHT22;20121;51.910;8.406;2022-12-18T08:06:02;-6.50;99.90
33815;DHT22;20121;51.910;8.406;2022-12-18T08:08:29;-6.40;99.90
33815;DHT22;20121;51.910;8.406;2022-12-18T08:10:55;-6.30;99.90
33815;DHT22;20121;51.910;8.406;2022-12-18T08:13:21;-6.00;99.90
33815;DHT22;20121;51.910;8.406;2022-12-18T08:15:54;-5.70;99.90
33815;DHT22;20121;51.910;8.406;2022-12-18T08:18:20;-5.40;99.90
33815;DHT22;20121;51.910;8.406;2022-12-18T08:20:45;-4.90;99.90
33815;DHT22;20121;51.910;8.406;2022-12-18T08:23:11;-5.00;99.90
33815;DHT22;20121;51.910;8.406;2022-12-18T08:25:37;-4.80;99.90
33815;DHT22;20121;51.910;8.406;2022-12-18T08:28:02;-4.70;99.90
33815;DHT22;20121;51.910;8.406;2022-12-18T08:30:28;-4.60;99.90
33815;DHT22;20121;51.910;8.406;2022-12-18T08:32:54;-4.50;99.90
33815;DHT22;20121;51.910;8.406;2022-12-18T08:35:19;-4.40;99.90
33815;DHT22;20121;51.910;8.406;2022-12-18T08:37:45;-4.20;99.90
33815;DHT22;20121;51.910;8.406;2022-12-18T08:40:11;-4.30;99.90
33815;DHT22;20121;51.910;8.406;2022-12-18T08:42:38;-4.30;99.90
33815;DHT22;20121;51.910;8.406;2022-12-18T08:45:22;-4.20;99.90
33815;DHT22;20121;51.910;8.406;2022-12-18T08:47:47;-4.30;99.90
33815;DHT22;20121;51.910;8.406;2022-12-18T08:50:13;-4.20;99.90
33815;DHT22;20121;51.910;8.406;2022-12-18T08:52:40;-4.20;99.90
33815;DHT22;20121;51.910;8.406;2022-12-18T08:55:06;-4.20;99.90
33815;DHT22;20121;51.910;8.406;2022-12-18T08:57:31;-4.10;99.90
33815;DHT22;20121;51.910;8.406;2022-12-18T08:59:57;-4.10;99.90
33815;DHT22;20121;51.910;8.406;2022-12-18T09:02:23;-4.00;99.90
33815;DHT22;20121;51.910;8.406;2022-12-18T09:04:48;-3.90;99.90
33815;DHT22;20121;51.910;8.406;2022-12-18T09:07:14;-3.80;99.90
33815;DHT22;20121;51.910;8.406;2022-12-18T09:09:39;-3.80;99.90
33815;DHT22;20121;51.910;8.406;2022-12-18T09:12:05;-3.70;99.90
33815;DHT22;20121;51.910;8.406;2022-12-18T09:14:31;-3.60;99.90
33815;DHT22;20121;51.910;8.406;2022-12-18T09:16:56;-3.50;99.90
33815;DHT22;20121;51.910;8.406;2022-12-18T09:19:22;-3.40;99.90
33815;DHT22;20121;51.910;8.406;2022-12-18T09:21:47;-3.40;99.90
33815;DHT22;20121;51.910;8.406;2022-12-18T09:24:14;-3.30;99.90
33815;DHT22;20121;51.910;8.406;2022-12-18T09:26:39;-3.30;99.90
33815;DHT22;20121;51.910;8.406;2022-12-18T09:29:05;-3.20;99.90
33815;DHT22;20121;51.910;8.406;2022-12-18T09:31:33;-3.20;99.90
33815;DHT22;20121;51.910;8.406;2022-12-18T09:33:59;-3.10;99.90
33815;DHT22;20121;51.910;8.406;2022-12-18T09:36:25;-3.10;99.90
33815;DHT22;20121;51.910;8.406;2022-12-18T09:38:50;-3.00;99.90
33815;DHT22;20121;51.910;8.406;2022-12-18T09:41:43;-2.30;99.90
33815;DHT22;20121;51.910;8.406;2022-12-18T09:44:20;-2.90;99.90
33815;DHT22;20121;51.910;8.406;2022-12-18T09:46:51;-2.80;99.90
33815;DHT22;20121;51.910;8.406;2022-12-18T09:49:21;-2.80;99.90
33815;DHT22;20121;51.910;8.406;2022-12-18T09:52:11;-2.70;99.90
33815;DHT22;20121;51.910;8.406;2022-12-18T09:54:39;-2.70;99.90
33815;DHT22;20121;51.910;8.406;2022-12-18T09:57:05;-2.60;99.90
33815;DHT22;20121;51.910;8.406;2022-12-18T09:59:35;-2.50;99.90
33815;DHT22;20121;51.910;8.406;2022-12-18T10:02:22;-2.60;99.90
33815;DHT22;20121;51.910;8.406;2022-12-18T10:05:10;-2.50;99.90
33815;DHT22;20121;51.910;8.406;2022-12-18T10:07:50;-2.40;99.90
33815;DHT22;20121;51.910;8.406;2022-12-18T10:10:30;-2.30;99.90
33815;DHT22;20121;51.910;8.406;2022-12-18T10:13:07;-2.30;99.90
33815;DHT22;20121;51.910;8.406;2022-12-18T10:18:29;-2.20;99.90
33815;DHT22;20121;51.910;8.406;2022-12-18T10:21:02;-2.10;99.90
33815;DHT22;20121;51.910;8.406;2022-12-18T10:24:31;-2.00;99.90
33815;DHT22;20121;51.910;8.406;2022-12-18T10:26:36;-2.00;99.90
33815;DHT22;20121;51.910;8.406;2022-12-18T10:29:09;-1.80;99.90
33815;DHT22;20121;51.910;8.406;2022-12-18T10:31:36;-1.80;99.90
33815;DHT22;20121;51.910;8.406;2022-12-18T10:34:02;-1.70;99.90
33815;DHT22;20121;51.910;8.406;2022-12-18T10:36:27;-1.70;99.90
33815;DHT22;20121;51.910;8.406;2022-12-18T10:38:53;-1.60;99.90
33815;DHT22;20121;51.910;8.406;2022-12-18T10:43:47;-1.50;99.90
33815;DHT22;20121;51.910;8.406;2022-12-18T10:46:17;-1.50;99.90
33815;DHT22;20121;51.910;8.406;2022-12-18T10:48:54;-1.20;99.90
33815;DHT22;20121;51.910;8.406;2022-12-18T10:51:27;-1.40;99.90
33815;DHT22;20121;51.910;8.406;2022-12-18T10:54:04;-1.40;99.90
33815;DHT22;20121;51.910;8.406;2022-12-18T10:56:33;-1.30;99.90
33815;DHT22;20121;51.910;8.406;2022-12-18T10:59:08;-1.30;99.90
33815;DHT22;20121;51.910;8.406;2022-12-18T11:01:55;-1.30;99.90
33815;DHT22;20121;51.910;8.406;2022-12-18T11:09:23;-1.20;99.90
33815;DHT22;20121;51.910;8.406;2022-12-18T11:11:56;-1.20;99.90
33815;DHT22;20121;51.910;8.406;2022-12-18T11:14:44;-1.10;99.90
33815;DHT22;20121;51.910;8.406;2022-12-18T11:19:55;-1.00;99.90
33815;DHT22;20121;51.910;8.406;2022-12-18T11:22:32;-1.00;99.90
33815;DHT22;20121;51.910;8.406;2022-12-18T11:25:06;-0.90;99.90
33815;DHT22;20121;51.910;8.406;2022-12-18T11:27:49;-0.90;99.90
33815;DHT22;20121;51.910;8.406;2022-12-18T11:30:36;-0.80;99.90
33815;DHT22;20121;51.910;8.406;2022-12-18T11:33:20;-0.80;99.90
33815;DHT22;20121;51.910;8.406;2022-12-18T11:35:58;-0.70;99.90
33815;DHT22;20121;51.910;8.406;2022-12-18T11:38:36;-0.60;99.90
33815;DHT22;20121;51.910;8.406;2022-12-18T11:41:26;-0.60;99.90
33815;DHT22;20121;51.910;8.406;2022-12-18T11:44:24;-0.50;99.90
33815;DHT22;20121;51.910;8.406;2022-12-18T11:46:55;-0.50;99.90
33815;DHT22;20121;51.910;8.406;2022-12-18T11:49:28;-0.40;99.90
33815;DHT22;20121;51.910;8.406;2022-12-18T11:52:26;-0.40;99.90
33815;DHT22;20121;51.910;8.406;2022-12-18T11:54:57;-0.30;99.90
33815;DHT22;20121;51.910;8.406;2022-12-18T12:00:20;-0.30;99.90
33815;DHT22;20121;51.910;8.406;2022-12-18T12:05:50;-0.20;99.90
33815;DHT22;20121;51.910;8.406;2022-12-18T12:08:34;-0.10;99.90
33815;DHT22;20121;51.910;8.406;2022-12-18T12:13:47;-0.20;99.90
33815;DHT22;20121;51.910;8.406;2022-12-18T12:18:49;0.00;99.90
33815;DHT22;20121;51.910;8.406;2022-12-18T12:21:33;0.00;99.90
33815;DHT22;20121;51.910;8.406;2022-12-18T12:27:25;-0.10;99.90
33815;DHT22;20121;51.910;8.406;2022-12-18T12:40:03;0.20;99.90
33815;DHT22;20121;51.910;8.406;2022-12-18T12:42:44;0.20;99.90
33815;DHT22;20121;51.910;8.406;2022-12-18T12:45:44;0.20;99.90
33815;DHT22;20121;51.910;8.406;2022-12-18T12:51:17;0.30;99.90
33815;DHT22;20121;51.910;8.406;2022-12-18T12:53:43;0.30;99.90
33815;DHT22;20121;51.910;8.406;2022-12-18T12:56:13;0.30;99.90
33815;DHT22;20121;51.910;8.406;2022-12-18T12:59:05;0.30;99.90
33815;DHT22;20121;51.910;8.406;2022-12-18T13:10:12;0.30;99.90
33815;DHT22;20121;51.910;8.406;2022-12-18T13:13:05;0.30;99.90
33815;DHT22;20121;51.910;8.406;2022-12-18T13:15:49;0.50;99.90
33815;DHT22;20121;51.910;8.406;2022-12-18T13:18:28;0.40;99.90
33815;DHT22;20121;51.910;8.406;2022-12-18T13:25:53;0.40;99.80
33815;DHT22;20121;51.910;8.406;2022-12-18T13:34:22;0.40;99.50
33815;DHT22;20121;51.910;8.406;2022-12-18T13:36:48;0.40;99.30
33815;DHT22;20121;51.910;8.406;2022-12-18T13:41:41;0.40;99.80
33815;DHT22;20121;51.910;8.406;2022-12-18T13:46:44;0.40;99.20
33815;DHT22;20121;51.910;8.406;2022-12-18T13:51:42;0.40;99.30
33815;DHT22;20121;51.910;8.406;2022-12-18T13:54:27;0.40;99.20
33815;DHT22;20121;51.910;8.406;2022-12-18T13:56:54;0.40;99.00
33815;DHT22;20121;51.910;8.406;2022-12-18T13:59:25;0.40;98.70
33815;DHT22;20121;51.910;8.406;2022-12-18T14:04:29;0.40;98.50
33815;DHT22;20121;51.910;8.406;2022-12-18T14:07:00;0.40;98.60
33815;DHT22;20121;51.910;8.406;2022-12-18T14:09:30;0.40;98.50
33815;DHT22;20121;51.910;8.406;2022-12-18T14:11:57;0.40;99.90
33815;DHT22;20121;51.910;8.406;2022-12-18T14:14:45;0.40;98.20
33815;DHT22;20121;51.910;8.406;2022-12-18T14:17:13;0.40;98.30
33815;DHT22;20121;51.910;8.406;2022-12-18T14:19:47;0.30;98.30
33815;DHT22;20121;51.910;8.406;2022-12-18T14:22:21;0.30;98.50
33815;DHT22;20121;51.910;8.406;2022-12-18T14:25:14;0.30;98.30
33815;DHT22;20121;51.910;8.406;2022-12-18T14:27:46;0.30;98.00
33815;DHT22;20121;51.910;8.406;2022-12-18T14:30:35;0.30;98.00
33815;DHT22;20121;51.910;8.406;2022-12-18T14:33:02;0.30;98.00
33815;DHT22;20121;51.910;8.406;2022-12-18T14:35:28;0.50;99.90
33815;DHT22;20121;51.910;8.406;2022-12-18T14:37:57;0.30;97.70
33815;DHT22;20121;51.910;8.406;2022-12-18T14:40:32;0.30;97.80
33815;DHT22;20121;51.910;8.406;2022-12-18T14:42:58;0.30;97.50
33815;DHT22;20121;51.910;8.406;2022-12-18T14:48:35;0.30;97.80
33815;DHT22;20121;51.910;8.406;2022-12-18T14:53:39;0.30;97.80
33815;DHT22;20121;51.910;8.406;2022-12-18T14:58:52;0.30;97.80
33815;DHT22;20121;51.910;8.406;2022-12-18T15:01:24;0.30;97.80
33815;DHT22;20121;51.910;8.406;2022-12-18T15:03:52;0.30;98.00
33815;DHT22;20121;51.910;8.406;2022-12-18T15:06:26;0.20;97.90
33815;DHT22;20121;51.910;8.406;2022-12-18T15:08:52;0.20;98.00
33815;DHT22;20121;51.910;8.406;2022-12-18T15:11:42;0.20;98.20
33815;DHT22;20121;51.910;8.406;2022-12-18T15:14:48;0.20;98.30
33815;DHT22;20121;51.910;8.406;2022-12-18T15:17:22;0.20;98.10
33815;DHT22;20121;51.910;8.406;2022-12-18T15:19:51;0.10;98.40
33815;DHT22;20121;51.910;8.406;2022-12-18T15:22:29;0.20;98.40
33815;DHT22;20121;51.910;8.406;2022-12-18T15:24:56;0.20;98.20
33815;DHT22;20121;51.910;8.406;2022-12-18T15:27:31;0.10;98.00
33815;DHT22;20121;51.910;8.406;2022-12-18T15:32:34;0.10;98.60
33815;DHT22;20121;51.910;8.406;2022-12-18T15:37:38;0.10;98.70
33815;DHT22;20121;51.910;8.406;2022-12-18T15:40:04;0.00;98.80
33815;DHT22;20121;51.910;8.406;2022-12-18T15:42:30;0.00;98.80
33815;DHT22;20121;51.910;8.406;2022-12-18T15:45:14;0.00;98.90
33815;DHT22;20121;51.910;8.406;2022-12-18T15:47:51;-0.30;99.90
33815;DHT22;20121;51.910;8.406;2022-12-18T15:50:17;0.10;99.90
33815;DHT22;20121;51.910;8.406;2022-12-18T15:52:44;0.00;99.10
33815;DHT22;20121;51.910;8.406;2022-12-18T15:55:19;0.00;99.00
33815;DHT22;20121;51.910;8.406;2022-12-18T15:58:10;0.00;99.10
33815;DHT22;20121;51.910;8.406;2022-12-18T16:00:38;-0.20;99.00
33815;DHT22;20121;51.910;8.406;2022-12-18T16:03:04;0.00;98.90
33815;DHT22;20121;51.910;8.406;2022-12-18T16:05:30;0.00;99.90
33815;DHT22;20121;51.910;8.406;2022-12-18T16:07:56;0.00;98.70
33815;DHT22;20121;51.910;8.406;2022-12-18T16:10:22;0.00;98.70
33815;DHT22;20121;51.910;8.406;2022-12-18T16:12:47;0.00;98.70
33815;DHT22;20121;51.910;8.406;2022-12-18T16:15:14;0.00;98.50
33815;DHT22;20121;51.910;8.406;2022-12-18T16:17:45;0.00;98.40
33815;DHT22;20121;51.910;8.406;2022-12-18T16:20:15;0.10;99.90
33815;DHT22;20121;51.910;8.406;2022-12-18T16:22:43;0.00;98.60
33815;DHT22;20121;51.910;8.406;2022-12-18T16:25:20;0.00;98.60
33815;DHT22;20121;51.910;8.406;2022-12-18T16:27:46;0.00;98.50
33815;DHT22;20121;51.910;8.406;2022-12-18T16:30:17;0.00;98.70
33815;DHT22;20121;51.910;8.406;2022-12-18T16:32:44;0.00;98.70
33815;DHT22;20121;51.910;8.406;2022-12-18T16:35:14;0.00;98.70
33815;DHT22;20121;51.910;8.406;2022-12-18T16:37:41;0.00;98.40
33815;DHT22;20121;51.910;8.406;2022-12-18T16:40:12;0.00;98.70
33815;DHT22;20121;51.910;8.406;2022-12-18T16:42:39;0.00;98.80
33815;DHT22;20121;51.910;8.406;2022-12-18T16:45:07;-0.10;98.70
33815;DHT22;20121;51.910;8.406;2022-12-18T16:47:33;0.00;98.50
33815;DHT22;20121;51.910;8.406;2022-12-18T16:49:59;0.00;98.70
33815;DHT22;20121;51.910;8.406;2022-12-18T16:52:25;0.00;98.80
33815;DHT22;20121;51.910;8.406;2022-12-18T16:54:51;-0.10;98.90
33815;DHT22;20121;51.910;8.406;2022-12-18T16:57:19;-0.10;98.70
33815;DHT22;20121;51.910;8.406;2022-12-18T16:59:45;-0.10;99.00
33815;DHT22;20121;51.910;8.406;2022-12-18T17:02:22;-0.10;98.90
33815;DHT22;20121;51.910;8.406;2022-12-18T17:04:51;-0.10;99.00
33815;DHT22;20121;51.910;8.406;2022-12-18T17:07:17;-0.10;99.00
33815;DHT22;20121;51.910;8.406;2022-12-18T17:09:43;-0.20;99.30
33815;DHT22;20121;51.910;8.406;2022-12-18T17:12:08;-0.10;99.50
33815;DHT22;20121;51.910;8.406;2022-12-18T17:14:35;-0.30;99.90
33815;DHT22;20121;51.910;8.406;2022-12-18T17:19:27;-0.10;99.30
33815;DHT22;20121;51.910;8.406;2022-12-18T17:21:53;-0.10;99.50
33815;DHT22;20121;51.910;8.406;2022-12-18T17:24:19;-0.10;99.60
33815;DHT22;20121;51.910;8.406;2022-12-18T17:29:14;-0.10;99.40
33815;DHT22;20121;51.910;8.406;2022-12-18T17:31:40;0.00;99.60
33815;DHT22;20121;51.910;8.406;2022-12-18T17:34:06;0.00;99.50
33815;DHT22;20121;51.910;8.406;2022-12-18T17:36:32;-0.10;99.50
33815;DHT22;20121;51.910;8.406;2022-12-18T17:38:59;-0.10;99.00
33815;DHT22;20121;51.910;8.406;2022-12-18T17:41:27;0.00;99.30
33815;DHT22;20121;51.910;8.406;2022-12-18T17:43:58;0.00;99.50